createdAt,value
2018-02-26T00:00:05.438Z,2.71
2018-02-26T00:00:45.849Z,2.77
2018-02-26T00:01:26.330Z,2.86
2018-02-26T00:02:06.639Z,2.99
2018-02-26T00:02:47.080Z,2.99
2018-02-26T00:03:27.773Z,3.07
2018-02-26T00:04:08.241Z,2.86
2018-02-26T00:04:48.841Z,2.84
2018-02-26T00:05:29.379Z,2.9
2018-02-26T00:06:09.662Z,2.84
2018-02-26T00:06:50.101Z,3.05
2018-02-26T00:07:30.674Z,3.17
2018-02-26T00:08:10.875Z,3.15
2018-02-26T00:08:51.246Z,3.04
2018-02-26T00:09:31.768Z,2.95
2018-02-26T00:10:12.063Z,2.86
2018-02-26T00:10:52.449Z,2.92
2018-02-26T00:12:30.544Z,2.97
2018-02-26T00:13:14.734Z,3.07
2018-02-26T00:13:54.159Z,3.08
2018-02-26T00:16:10.311Z,3.39
2018-02-26T00:17:59.916Z,3.42
2018-02-26T00:23:18.078Z,3.39
2018-02-26T00:24:01.513Z,3.45
2018-02-26T00:24:41.917Z,3.45
2018-02-26T00:25:22.330Z,3.35
2018-02-26T00:26:02.696Z,3.3
2018-02-26T00:26:43.143Z,3.37
2018-02-26T00:27:23.515Z,3.31
2018-02-26T00:28:03.893Z,3.08
2018-02-26T00:28:44.305Z,3.13
2018-02-26T00:29:24.706Z,3.2
2018-02-26T00:30:05.116Z,3.2
2018-02-26T00:30:45.505Z,3.16
2018-02-26T00:31:25.862Z,3.12
2018-02-26T00:32:06.373Z,3.05
2018-02-26T00:32:46.760Z,2.97
2018-02-26T00:33:27.120Z,2.98
2018-02-26T00:34:07.492Z,2.95
2018-02-26T00:34:47.933Z,2.95
2018-02-26T00:35:28.306Z,2.97
2018-02-26T00:36:08.698Z,2.86
2018-02-26T00:36:49.125Z,2.97
2018-02-26T00:37:29.563Z,2.98
2018-02-26T00:38:09.965Z,2.99
2018-02-26T00:38:50.359Z,2.97
2018-02-26T00:40:42.127Z,2.87
2018-02-26T00:41:23.910Z,2.76
2018-02-26T00:43:17.026Z,2.66
2018-02-26T00:44:05.490Z,2.56
2018-02-26T00:44:44.086Z,2.62
2018-02-26T00:45:24.443Z,2.8
2018-02-26T00:46:04.846Z,2.68
2018-02-26T00:46:45.371Z,2.73
2018-02-26T00:47:25.775Z,2.76
2018-02-26T00:48:06.391Z,2.65
2018-02-26T00:48:46.647Z,2.63
2018-02-26T00:49:27.061Z,2.33
2018-02-26T00:50:07.479Z,2.38
2018-02-26T00:50:47.904Z,2.32
2018-02-26T00:51:28.681Z,2.33
2018-02-26T00:52:08.917Z,2.23
2018-02-26T00:52:49.338Z,2.37
2018-02-26T00:53:29.771Z,2.37
2018-02-26T00:54:10.385Z,2.19
2018-02-26T00:54:50.520Z,2.07
2018-02-26T00:55:30.936Z,2
2018-02-26T00:56:11.326Z,2.01
2018-02-26T00:56:51.762Z,2.08
2018-02-26T00:57:32.121Z,2.15
2018-02-26T00:58:12.511Z,2.14
2018-02-26T00:58:52.929Z,2.23
2018-02-26T00:59:33.315Z,2.29
2018-02-26T01:00:13.950Z,2.18
2018-02-26T01:00:54.403Z,2.09
2018-02-26T01:01:34.613Z,2.14
2018-02-26T01:02:15.015Z,2.22
2018-02-26T01:02:55.509Z,2.23
2018-02-26T01:03:35.879Z,2.29
2018-02-26T01:04:16.264Z,2.38
2018-02-26T01:05:54.489Z,2.37
2018-02-26T01:06:41.423Z,2.47
2018-02-26T01:07:31.479Z,2.5
2018-02-26T01:08:20.561Z,2.66
2018-02-26T01:09:02.841Z,2.71
2018-02-26T01:11:02.069Z,2.73
2018-02-26T01:11:51.793Z,2.74
2018-02-26T01:12:40.441Z,2.66
2018-02-26T01:13:24.170Z,2.77
2018-02-26T01:14:04.556Z,2.76
2018-02-26T01:14:44.964Z,2.79
2018-02-26T01:15:25.380Z,2.69
2018-02-26T01:16:05.784Z,2.59
2018-02-26T01:16:46.173Z,2.68
2018-02-26T01:17:26.586Z,2.73
2018-02-26T01:19:41.370Z,2.76
2018-02-26T01:20:33.256Z,2.8
2018-02-26T01:21:11.779Z,2.61
2018-02-26T01:21:52.158Z,2.68
2018-02-26T01:22:32.552Z,2.66
2018-02-26T01:23:12.958Z,2.66
2018-02-26T01:23:53.354Z,2.68
2018-02-26T01:24:33.781Z,2.66
2018-02-26T01:25:14.211Z,2.71
2018-02-26T01:25:54.669Z,2.69
2018-02-26T01:26:35.026Z,2.71
2018-02-26T01:27:15.396Z,2.74
2018-02-26T01:27:55.786Z,2.71
2018-02-26T01:28:36.453Z,2.8
2018-02-26T01:29:16.615Z,2.76
2018-02-26T01:29:57.018Z,2.77
2018-02-26T01:30:37.401Z,2.83
2018-02-26T01:31:17.820Z,2.89
2018-02-26T01:31:58.293Z,2.89
2018-02-26T01:32:38.772Z,2.95
2018-02-26T01:35:33.194Z,2.89
2018-02-26T01:36:23.880Z,2.92
2018-02-26T01:37:13.633Z,2.87
2018-02-26T01:39:18.184Z,2.77
2018-02-26T01:40:07.554Z,2.8
2018-02-26T01:40:56.036Z,2.81
2018-02-26T01:41:46.251Z,3.12
2018-02-26T01:42:35.479Z,3.12
2018-02-26T01:43:24.138Z,3.17
2018-02-26T01:44:13.257Z,3.25
2018-02-26T01:45:10.410Z,3.23
2018-02-26T01:46:02.262Z,3.34
2018-02-26T01:46:50.741Z,3.39
2018-02-26T01:48:45.131Z,3.34
2018-02-26T01:50:45.081Z,3.26
2018-02-26T01:52:46.667Z,3.23
2018-02-26T01:57:33.428Z,3.5
2018-02-26T01:59:09.593Z,3.37
2018-02-26T02:01:11.318Z,3.54
2018-02-26T02:02:01.919Z,3.52
2018-02-26T02:03:56.696Z,3.3
2018-02-26T02:04:46.749Z,3.28
2018-02-26T02:05:36.553Z,3.26
2018-02-26T02:06:26.114Z,3.31
2018-02-26T02:07:16.222Z,3.08
2018-02-26T02:08:05.473Z,3.12
2018-02-26T02:08:57.007Z,3.16
2018-02-26T02:09:48.187Z,3.17
2018-02-26T02:11:25.751Z,3.05
2018-02-26T02:12:17.141Z,3.01
2018-02-26T02:14:42.049Z,2.83
2018-02-26T02:16:19.489Z,2.74
2018-02-26T02:21:27.109Z,2.3
2018-02-26T02:22:15.577Z,2.22
2018-02-26T02:23:09.164Z,2.33
2018-02-26T02:25:48.465Z,2.2
2018-02-26T02:29:37.951Z,2.01
2018-02-26T02:30:28.811Z,1.89
2018-02-26T02:31:15.461Z,2
2018-02-26T02:32:07.881Z,1.95
2018-02-26T02:32:56.976Z,2.11
2018-02-26T02:33:46.969Z,2.14
2018-02-26T02:34:37.338Z,2.04
2018-02-26T02:37:38.484Z,2.11
2018-02-26T02:38:30.322Z,2.04
2018-02-26T02:42:29.118Z,2.07
2018-02-26T02:43:19.925Z,2.15
2018-02-26T02:45:01.955Z,2.36
2018-02-26T02:45:51.527Z,2.05
2018-02-26T02:46:45.216Z,2.14
2018-02-26T02:47:33.095Z,2.04
2018-02-26T02:48:23.061Z,2.09
2018-02-26T02:56:17.943Z,2.18
2018-02-26T02:57:59.321Z,2.18
2018-02-26T02:59:40.770Z,1.98
2018-02-26T03:00:26.202Z,1.89
2018-02-26T03:01:17.943Z,1.63
2018-02-26T03:02:10.479Z,1.38
2018-02-26T03:03:48.259Z,1.13
2018-02-26T03:05:46.537Z,1.2
2018-02-26T03:08:10.361Z,1.26
2018-02-26T03:09:00.470Z,1.25
2018-02-26T03:09:53.328Z,1.21
2018-02-26T03:10:43.869Z,1.11
2018-02-26T03:13:41.563Z,1.31
2018-02-26T03:14:30.744Z,1.52
2018-02-26T03:15:21.191Z,1.57
2018-02-26T03:17:26.538Z,1.42
2018-02-26T03:20:24.992Z,1.65
2018-02-26T03:25:53.179Z,1.79
2018-02-26T03:29:36.001Z,2.09
2018-02-26T03:30:25.457Z,2.14
2018-02-26T03:38:14.517Z,2.61
2018-02-26T03:41:21.644Z,2.45
2018-02-26T03:42:55.066Z,2.44
2018-02-26T03:43:46.450Z,2.38
2018-02-26T03:47:49.167Z,2.36
2018-02-26T03:49:48.032Z,2.27
2018-02-26T03:50:40.837Z,2.33
2018-02-26T03:52:13.332Z,2.23
2018-02-26T03:53:05.238Z,2.18
2018-02-26T03:55:13.794Z,2.41
2018-02-26T03:58:24.552Z,2.38
2018-02-26T03:59:07.964Z,2.38
2018-02-26T04:01:15.363Z,2.48
2018-02-26T04:02:08.719Z,2.44
2018-02-26T04:03:00.787Z,2.47
2018-02-26T04:05:12.291Z,2.26
2018-02-26T04:55:14.180Z,1.81
2018-02-26T05:01:38.611Z,1.89
2018-02-26T05:04:03.104Z,2.18
2018-02-26T05:08:23.117Z,2.53
2018-02-26T05:09:11.646Z,2.48
2018-02-26T05:11:02.216Z,2.69
2018-02-26T05:13:07.824Z,2.95
2018-02-26T05:13:47.065Z,2.83
2018-02-26T05:14:27.433Z,2.89
2018-02-26T05:15:09.090Z,2.86
2018-02-26T05:15:49.585Z,2.86
2018-02-26T05:16:30.611Z,2.95
2018-02-26T05:17:11.175Z,2.95
2018-02-26T05:17:52.615Z,2.99
2018-02-26T05:18:32.582Z,3.05
2018-02-26T05:19:13.233Z,2.92
2018-02-26T05:19:53.617Z,2.92
2018-02-26T05:20:34.253Z,2.95
2018-02-26T05:21:14.671Z,2.95
2018-02-26T05:21:55.426Z,3.17
2018-02-26T05:22:38.108Z,3.19
2018-02-26T05:23:18.265Z,3.2
2018-02-26T05:23:58.798Z,3.22
2018-02-26T05:24:39.655Z,3.12
2018-02-26T05:25:21.005Z,3.19
2018-02-26T05:26:01.172Z,3.13
2018-02-26T05:26:43.585Z,3.12
2018-02-26T05:27:26.483Z,3.08
2018-02-26T05:28:08.025Z,2.95
2018-02-26T05:28:49.025Z,2.92
2018-02-26T05:29:29.297Z,2.9
2018-02-26T05:30:11.403Z,2.77
2018-02-26T05:32:30.871Z,2.62
2018-02-26T05:33:11.019Z,2.65
2018-02-26T05:33:51.345Z,2.68
2018-02-26T05:34:31.806Z,2.65
2018-02-26T05:35:12.480Z,2.71
2018-02-26T05:35:52.907Z,2.66
2018-02-26T05:36:33.347Z,2.56
2018-02-26T05:38:22.024Z,2.8
2018-02-26T05:39:02.370Z,2.8
2018-02-26T05:39:42.808Z,2.9
2018-02-26T05:40:23.229Z,2.83
2018-02-26T05:41:03.608Z,2.69
2018-02-26T05:41:43.948Z,2.59
2018-02-26T05:42:24.333Z,2.47
2018-02-26T05:43:04.931Z,2.33
2018-02-26T05:43:45.240Z,2.15
2018-02-26T05:45:34.042Z,2.05
2018-02-26T05:46:14.389Z,1.89
2018-02-26T05:46:54.793Z,1.93
2018-02-26T05:47:35.171Z,1.72
2018-02-26T05:48:15.585Z,1.63
2018-02-26T05:49:10.629Z,1.53
2018-02-26T05:49:51.023Z,1.64
2018-02-26T05:50:31.423Z,1.65
2018-02-26T05:52:44.366Z,1.63
2018-02-26T05:54:32.203Z,1.95
2018-02-26T05:57:34.272Z,2.09
2018-02-26T05:59:47.742Z,2.15
2018-02-26T06:00:28.135Z,2.18
2018-02-26T06:02:41.504Z,2.36
2018-02-26T06:03:21.843Z,2.36
2018-02-26T06:05:10.604Z,2.15
2018-02-26T06:05:50.959Z,2.3
2018-02-26T06:06:31.331Z,2.26
2018-02-26T06:08:19.191Z,2.32
2018-02-26T06:08:59.580Z,2.37
2018-02-26T06:09:39.949Z,2.36
2018-02-26T06:10:21.158Z,2.4
2018-02-26T06:15:36.486Z,2.63
2018-02-26T06:27:01.824Z,2.01
2018-02-26T06:27:58.977Z,2.11
2018-02-26T06:28:40.302Z,1.95
2018-02-26T06:29:20.480Z,2.07
2018-02-26T06:30:01.484Z,2.07
2018-02-26T06:30:41.982Z,2.04
2018-02-26T06:31:24.049Z,2
2018-02-26T06:32:04.604Z,1.86
2018-02-26T06:32:54.992Z,1.88
2018-02-26T06:34:32.470Z,1.88
2018-02-26T06:35:27.254Z,1.72
2018-02-26T06:37:51.579Z,1.75
2018-02-26T06:39:26.298Z,1.74
2018-02-26T06:40:08.167Z,1.79
2018-02-26T06:40:49.706Z,1.7
2018-02-26T06:41:30.588Z,1.83
2018-02-26T06:42:11.544Z,1.88
2018-02-26T06:44:04.668Z,1.92
2018-02-26T06:44:45.518Z,2.12
2018-02-26T06:46:13.357Z,2.2
2018-02-26T06:46:54.931Z,2.41
2018-02-26T06:47:35.063Z,2.18
2018-02-26T06:49:24.391Z,2.12
2018-02-26T06:50:05.396Z,2.14
2018-02-26T06:50:45.610Z,2.2
2018-02-26T06:52:34.767Z,2.19
2018-02-26T06:55:28.342Z,2.47
2018-02-26T06:56:09.884Z,2.68
2018-02-26T06:59:38.210Z,3.23
2018-02-26T07:00:20.374Z,3.15
2018-02-26T07:01:01.864Z,3.19
2018-02-26T07:01:42.599Z,3.33
2018-02-26T07:02:38.664Z,3.28
2018-02-26T07:03:34.392Z,3.25
2018-02-26T07:04:23.202Z,3.33
2018-02-26T07:06:09.613Z,2.97
2018-02-26T07:06:53.021Z,2.95
2018-02-26T07:07:33.385Z,2.62
2018-02-26T07:08:14.943Z,2.74
2018-02-26T07:10:28.945Z,2.97
2018-02-26T07:11:09.393Z,2.84
2018-02-26T07:12:58.764Z,2.84
2018-02-26T07:13:39.581Z,2.94
2018-02-26T07:14:21.734Z,2.98
2018-02-26T07:16:08.913Z,3.3
2018-02-26T07:18:22.917Z,3.39
2018-02-26T07:19:04.050Z,3.42
2018-02-26T07:19:45.564Z,3.53
2018-02-26T07:24:04.293Z,3.74
2018-02-26T07:24:44.403Z,3.78
2018-02-26T07:27:00.538Z,3.71
2018-02-26T07:29:00.947Z,3.56
2018-02-26T07:29:42.063Z,3.6
2018-02-26T07:30:23.742Z,3.54
2018-02-26T07:32:11.842Z,3.57
2018-02-26T07:32:53.081Z,3.56
2018-02-26T07:33:34.018Z,3.63
2018-02-26T07:34:14.533Z,3.63
2018-02-26T07:34:55.879Z,3.81
2018-02-26T07:37:13.521Z,4.13
2018-02-26T07:39:40.686Z,3.99
2018-02-26T07:42:02.731Z,4.06
2018-02-26T07:42:44.017Z,4.1
2018-02-26T07:43:24.884Z,4.18
2018-02-26T07:44:06.406Z,4.17
2018-02-26T07:47:08.358Z,4.31
2018-02-26T07:49:23.608Z,4.29
2018-02-26T07:51:37.635Z,4.28
2018-02-26T07:53:50.862Z,4.51
2018-02-26T07:54:32.074Z,4.47
2018-02-26T07:56:20.922Z,4.62
2018-02-26T07:57:02.361Z,4.61
2018-02-26T07:57:42.937Z,4.77
2018-02-26T07:58:23.606Z,4.87
2018-02-26T07:59:04.212Z,4.84
2018-02-26T07:59:45.308Z,5.04
2018-02-26T08:00:27.413Z,5.08
2018-02-26T08:01:07.861Z,5.19
2018-02-26T08:01:49.334Z,5.3
2018-02-26T08:02:44.329Z,5.42
2018-02-26T08:03:24.704Z,5.48
2018-02-26T08:05:13.349Z,6.05
2018-02-26T08:06:01.769Z,6.24
2018-02-26T08:06:41.161Z,6.46
2018-02-26T08:08:44.978Z,6.93
2018-02-26T08:09:26.978Z,7.09
2018-02-26T08:11:40.395Z,7.15
2018-02-26T08:12:22.786Z,7.21
2018-02-26T08:13:03.153Z,7.34
2018-02-26T08:13:44.448Z,7.41
2018-02-26T08:14:26.306Z,7.54
2018-02-26T08:17:42.414Z,7.34
2018-02-26T08:18:24.531Z,7.19
2018-02-26T08:19:34.985Z,7.16
2018-02-26T08:23:32.139Z,7.16
2018-02-26T08:36:42.531Z,7.63
2018-02-26T09:03:48.149Z,5.7
2018-02-26T09:08:44.414Z,5.87
2018-02-26T09:16:24.799Z,5.14
2018-02-26T09:17:59.469Z,5.15
2018-02-26T09:18:55.768Z,5.17
2018-02-26T09:19:36.210Z,5.04
2018-02-26T09:20:17.517Z,4.93
2018-02-26T09:21:12.485Z,4.84
2018-02-26T09:23:26.601Z,4.34
2018-02-26T09:27:11.240Z,4.68
2018-02-26T09:29:24.830Z,4.62
2018-02-26T09:31:13.206Z,4.51
2018-02-26T09:31:53.004Z,4.47
2018-02-26T09:32:36.453Z,4.28
2018-02-26T09:33:16.744Z,4.26
2018-02-26T09:33:57.156Z,4.31
2018-02-26T09:37:09.970Z,5.19
2018-02-26T09:38:46.468Z,5.92
2018-02-26T09:39:30.742Z,6.19
2018-02-26T09:40:09.163Z,6.25
2018-02-26T09:42:22.496Z,7.29
2018-02-26T09:45:50.307Z,8.17
2018-02-26T09:48:04.150Z,8.61
2018-02-26T09:48:48.121Z,8.85
2018-02-26T09:49:28.314Z,8.93
2018-02-26T09:51:20.245Z,8.6
2018-02-26T09:52:04.661Z,8.36
2018-02-26T09:52:45.562Z,8.07
2018-02-26T09:53:29.324Z,7.95
2018-02-26T09:54:13.315Z,7.76
2018-02-26T09:54:56.518Z,7.7
2018-02-26T09:55:38.015Z,7.57
2018-02-26T09:56:20.428Z,7.57
2018-02-26T09:57:01.618Z,7.7
2018-02-26T09:59:07.503Z,8.04
2018-02-26T10:00:44.490Z,8.42
2018-02-26T10:05:29.936Z,8.7
2018-02-26T10:06:09.669Z,8.91
2018-02-26T10:07:58.280Z,9.44
2018-02-26T10:45:35.375Z,6.05
2018-02-26T10:47:48.741Z,6.01
2018-02-26T11:04:17.714Z,4.9
2018-02-26T11:04:59.857Z,5.06
2018-02-26T11:05:40.358Z,5.04
2018-02-26T11:06:20.782Z,5.17
2018-02-26T11:07:41.227Z,5.22
2018-02-26T11:08:51.153Z,5.23
2018-02-26T11:09:31.556Z,5.22
2018-02-26T11:10:13.512Z,5.24
2018-02-26T11:10:54.125Z,5.35
2018-02-26T11:11:34.520Z,5.49
2018-02-26T11:12:15.192Z,5.51
2018-02-26T11:12:55.568Z,5.67
2018-02-26T11:21:06.273Z,6.11
2018-02-26T11:23:08.738Z,6.21
2018-02-26T11:25:43.890Z,7.08
2018-02-26T11:26:24.279Z,7.26
2018-02-26T11:27:04.977Z,7.33
2018-02-26T11:27:45.558Z,7.48
2018-02-26T11:28:26.346Z,7.57
2018-02-26T11:29:06.822Z,7.66
2018-02-26T11:29:48.460Z,7.55
2018-02-26T11:30:30.489Z,7.57
2018-02-26T11:31:11.745Z,7.52
2018-02-26T11:31:52.516Z,7.51
2018-02-26T11:32:35.168Z,7.63
2018-02-26T11:33:15.093Z,7.16
2018-02-26T11:33:55.561Z,7.14
2018-02-26T11:34:36.940Z,7.3
2018-02-26T11:35:20.957Z,7.55
2018-02-26T11:37:26.901Z,7.82
2018-02-26T11:38:07.281Z,7.85
2018-02-26T11:38:47.986Z,8.07
2018-02-26T11:39:28.616Z,8.21
2018-02-26T11:40:09.566Z,8.31
2018-02-26T11:40:50.079Z,8.18
2018-02-26T11:41:31.761Z,8.34
2018-02-26T11:42:12.967Z,8.32
2018-02-26T11:42:54.481Z,8.21
2018-02-26T11:43:36.012Z,8.06
2018-02-26T11:44:17.735Z,7.92
2018-02-26T11:44:58.722Z,7.81
2018-02-26T11:45:39.396Z,7.67
2018-02-26T11:46:19.749Z,7.69
2018-02-26T11:47:01.955Z,7.62
2018-02-26T11:47:42.986Z,7.54
2018-02-26T11:48:24.955Z,7.54
2018-02-26T11:49:06.125Z,7.6
2018-02-26T11:49:47.455Z,7.67
2018-02-26T11:50:28.438Z,7.79
2018-02-26T11:51:08.466Z,7.79
2018-02-26T11:51:49.501Z,7.63
2018-02-26T11:52:30.300Z,7.71
2018-02-26T11:53:11.566Z,7.95
2018-02-26T11:53:53.141Z,7.94
2018-02-26T11:54:33.376Z,7.94
2018-02-26T11:55:14.050Z,7.92
2018-02-26T11:55:54.836Z,7.85
2018-02-26T11:56:36.278Z,7.63
2018-02-26T11:57:16.857Z,7.58
2018-02-26T11:57:57.649Z,7.29
2018-02-26T11:58:39.423Z,7.18
2018-02-26T11:59:19.986Z,7.05
2018-02-26T12:00:01.785Z,6.71
2018-02-26T12:00:42.527Z,6.61
2018-02-26T12:01:23.470Z,6.53
2018-02-26T12:02:04.455Z,6.53
2018-02-26T12:02:45.947Z,6.54
2018-02-26T12:03:26.393Z,6.46
2018-02-26T12:04:07.836Z,6.28
2018-02-26T12:04:48.995Z,6.21
2018-02-26T12:05:29.775Z,6.14
2018-02-26T12:06:12.068Z,6.2
2018-02-26T12:06:52.861Z,6.28
2018-02-26T12:07:33.689Z,6.2
2018-02-26T12:08:14.919Z,6.1
2018-02-26T12:08:56.363Z,5.92
2018-02-26T12:09:37.714Z,5.56
2018-02-26T12:10:19.676Z,5.42
2018-02-26T12:10:59.980Z,5.35
2018-02-26T12:11:41.967Z,5.19
2018-02-26T12:12:22.951Z,5.23
2018-02-26T12:13:03.816Z,5.33
2018-02-26T12:13:45.291Z,5.47
2018-02-26T12:14:26.594Z,5.66
2018-02-26T12:15:07.661Z,5.77
2018-02-26T12:15:48.393Z,5.85
2018-02-26T12:16:29.922Z,5.98
2018-02-26T12:17:10.600Z,5.98
2018-02-26T12:17:51.228Z,6.03
2018-02-26T12:18:31.936Z,5.87
2018-02-26T12:19:12.916Z,5.59
2018-02-26T12:19:53.265Z,5.59
2018-02-26T12:20:34.133Z,5.63
2018-02-26T12:21:15.836Z,5.73
2018-02-26T12:21:56.469Z,5.8
2018-02-26T12:22:37.070Z,5.83
2018-02-26T12:26:27.716Z,5.7
2018-02-26T12:27:09.509Z,5.77
2018-02-26T12:27:51.285Z,5.65
2018-02-26T12:28:31.324Z,5.63
2018-02-26T12:29:14.018Z,5.48
2018-02-26T12:29:55.475Z,5.47
2018-02-26T12:32:05.958Z,5.42
2018-02-26T12:32:52.372Z,5.38
2018-02-26T12:33:35.273Z,5.29
2018-02-26T12:34:18.274Z,5.3
2018-02-26T12:34:58.998Z,5.37
2018-02-26T12:35:40.908Z,5.22
2018-02-26T12:36:21.664Z,5.17
2018-02-26T12:37:03.873Z,5.26
2018-02-26T12:37:45.825Z,5.12
2018-02-26T12:38:27.221Z,5.26
2018-02-26T12:39:08.623Z,5.35
2018-02-26T12:39:48.631Z,5.24
2018-02-26T12:40:30.598Z,5.42
2018-02-26T12:41:14.700Z,5.3
2018-02-26T12:41:57.601Z,5.27
2018-02-26T12:42:36.724Z,5.27
2018-02-26T12:43:18.213Z,5.37
2018-02-26T12:43:59.903Z,5.38
2018-02-26T12:44:40.385Z,5.56
2018-02-26T12:45:21.482Z,5.45
2018-02-26T12:46:02.225Z,5.56
2018-02-26T12:46:43.018Z,5.59
2018-02-26T12:47:24.604Z,5.65
2018-02-26T12:48:04.475Z,5.65
2018-02-26T12:48:45.437Z,5.67
2018-02-26T12:49:26.530Z,5.67
2018-02-26T12:50:07.190Z,5.75
2018-02-26T12:50:48.228Z,5.66
2018-02-26T12:51:29.817Z,5.65
2018-02-26T12:52:10.400Z,5.59
2018-02-26T12:52:51.945Z,5.45
2018-02-26T12:53:32.799Z,5.44
2018-02-26T12:54:14.670Z,5.63
2018-02-26T12:54:54.935Z,5.69
2018-02-26T12:55:36.320Z,5.59
2018-02-26T12:56:18.608Z,5.41
2018-02-26T12:56:58.746Z,5.19
2018-02-26T12:57:39.641Z,5.05
2018-02-26T12:58:20.823Z,4.9
2018-02-26T12:59:02.213Z,5.04
2018-02-26T12:59:42.271Z,5.09
2018-02-26T13:00:22.800Z,5.15
2018-02-26T13:01:05.992Z,5.29
2018-02-26T13:01:46.320Z,5.26
2018-02-26T13:02:28.129Z,5.3
2018-02-26T13:03:09.168Z,5.32
2018-02-26T13:03:53.138Z,5.33
2018-02-26T13:04:34.129Z,5.45
2018-02-26T13:05:14.512Z,5.12
2018-02-26T13:05:55.520Z,5.12
2018-02-26T13:06:37.119Z,5.12
2018-02-26T13:07:17.208Z,5.19
2018-02-26T13:07:58.318Z,5.26
2018-02-26T13:08:39.733Z,5.35
2018-02-26T13:09:21.719Z,5.35
2018-02-26T13:10:05.084Z,5.51
2018-02-26T13:10:46.656Z,5.6
2018-02-26T13:11:29.284Z,5.62
2018-02-26T13:12:10.159Z,5.67
2018-02-26T13:12:50.902Z,5.83
2018-02-26T13:13:31.723Z,5.9
2018-02-26T13:14:12.879Z,5.85
2018-02-26T13:14:55.464Z,5.93
2018-02-26T13:15:36.097Z,5.88
2018-02-26T13:16:16.910Z,5.77
2018-02-26T13:16:57.484Z,5.65
2018-02-26T13:17:38.456Z,5.49
2018-02-26T13:18:20.881Z,5.37
2018-02-26T13:19:01.182Z,5.24
2018-02-26T13:19:41.720Z,5.3
2018-02-26T13:20:24.310Z,5.24
2018-02-26T13:21:05.746Z,5.23
2018-02-26T13:21:46.257Z,5.3
2018-02-26T13:22:26.929Z,5.35
2018-02-26T13:23:09.198Z,5.38
2018-02-26T13:23:51.315Z,5.4
2018-02-26T13:24:33.166Z,5.33
2018-02-26T13:25:13.796Z,5.33
2018-02-26T13:25:54.404Z,5.22
2018-02-26T13:26:35.942Z,5.33
2018-02-26T13:27:17.347Z,5.29
2018-02-26T13:27:57.798Z,5.22
2018-02-26T13:28:38.250Z,5.4
2018-02-26T13:29:18.898Z,5.56
2018-02-26T13:30:01.191Z,5.73
2018-02-26T13:30:42.432Z,5.67
2018-02-26T13:31:25.174Z,5.65
2018-02-26T13:32:05.971Z,5.74
2018-02-26T13:32:49.209Z,5.6
2018-02-26T13:33:29.015Z,5.75
2018-02-26T13:34:10.318Z,5.92
2018-02-26T13:34:51.151Z,5.98
2018-02-26T13:35:33.684Z,5.98
2018-02-26T13:36:14.279Z,6.02
2018-02-26T13:36:54.915Z,6.16
2018-02-26T13:37:37.492Z,5.96
2018-02-26T13:38:17.840Z,6.02
2018-02-26T13:38:59.245Z,6.21
2018-02-26T13:39:40.053Z,6.3
2018-02-26T13:40:21.339Z,6.32
2018-02-26T13:41:01.979Z,6.35
2018-02-26T13:41:42.302Z,6.3
2018-02-26T13:42:27.267Z,6.32
2018-02-26T13:43:07.813Z,6.21
2018-02-26T13:43:48.536Z,6.16
2018-02-26T13:44:29.600Z,5.88
2018-02-26T13:45:10.883Z,5.69
2018-02-26T13:51:14.422Z,5.17
2018-02-26T13:55:03.643Z,4.93
2018-02-26T13:55:47.914Z,4.79
2018-02-26T13:56:28.981Z,4.64
2018-02-26T13:57:11.053Z,4.61
2018-02-26T13:57:53.361Z,4.72
2018-02-26T13:58:39.574Z,4.83
2018-02-26T14:00:45.426Z,4.74
2018-02-26T14:01:25.727Z,4.61
2018-02-26T14:02:07.813Z,4.8
2018-02-26T14:02:52.969Z,4.93
2018-02-26T14:03:34.439Z,4.88
2018-02-26T14:04:15.993Z,4.9
2018-02-26T14:04:58.309Z,5.01
2018-02-26T14:05:38.832Z,4.97
2018-02-26T14:06:20.976Z,5.04
2018-02-26T14:07:03.198Z,4.88
2018-02-26T14:07:45.104Z,4.93
2018-02-26T14:08:26.329Z,5.08
2018-02-26T14:09:06.893Z,4.91
2018-02-26T14:09:49.487Z,4.91
2018-02-26T14:10:30.256Z,4.93
2018-02-26T14:11:11.309Z,4.77
2018-02-26T14:11:52.700Z,4.84
2018-02-26T14:12:33.246Z,4.91
2018-02-26T14:13:14.719Z,4.93
2018-02-26T14:13:55.129Z,5.05
2018-02-26T14:14:36.078Z,4.91
2018-02-26T14:15:18.278Z,4.9
2018-02-26T14:16:01.728Z,4.88
2018-02-26T14:16:42.839Z,4.8
2018-02-26T14:17:29.969Z,4.8
2018-02-26T14:18:13.764Z,4.86
2018-02-26T14:18:54.582Z,4.83
2018-02-26T14:19:37.057Z,4.83
2018-02-26T14:20:18.874Z,4.83
2018-02-26T14:21:02.321Z,4.83
2018-02-26T14:21:43.012Z,4.88
2018-02-26T14:22:24.749Z,4.88
2018-02-26T14:23:09.293Z,5.02
2018-02-26T14:23:50.134Z,5.05
2018-02-26T14:24:31.768Z,5.11
2018-02-26T14:25:14.425Z,4.96
2018-02-26T14:25:55.249Z,5.04
2018-02-26T14:26:35.753Z,5.05
2018-02-26T14:27:18.023Z,5.06
2018-02-26T14:27:59.042Z,5.14
2018-02-26T14:28:39.676Z,5.22
2018-02-26T14:29:20.142Z,5.19
2018-02-26T14:30:01.200Z,5.19
2018-02-26T14:30:41.993Z,5.11
2018-02-26T14:31:22.867Z,5.08
2018-02-26T14:32:04.984Z,4.97
2018-02-26T14:32:46.007Z,4.96
2018-02-26T14:33:27.285Z,4.91
2018-02-26T14:34:11.590Z,4.9
2018-02-26T14:34:53.440Z,4.88
2018-02-26T14:35:37.453Z,5.12
2018-02-26T14:36:18.338Z,5.09
2018-02-26T14:36:59.472Z,5.17
2018-02-26T14:37:41.797Z,5.22
2018-02-26T14:38:22.759Z,5.06
2018-02-26T14:39:05.722Z,5.05
2018-02-26T14:39:46.792Z,5.17
2018-02-26T14:40:27.658Z,5.29
2018-02-26T14:41:09.624Z,5.23
2018-02-26T14:41:50.178Z,5.26
2018-02-26T14:42:31.639Z,5.32
2018-02-26T14:43:12.586Z,5.42
2018-02-26T14:43:53.888Z,5.48
2018-02-26T14:44:35.218Z,5.38
2018-02-26T14:45:16.032Z,5.35
2018-02-26T14:45:56.604Z,5.45
2018-02-26T14:46:37.591Z,5.26
2018-02-26T14:47:18.321Z,5.35
2018-02-26T14:47:59.565Z,5.24
2018-02-26T14:48:40.326Z,5.26
2018-02-26T14:49:21.262Z,5.27
2018-02-26T14:50:03.069Z,5.24
2018-02-26T14:50:43.656Z,5.44
2018-02-26T14:51:24.164Z,5.26
2018-02-26T14:52:04.817Z,5.41
2018-02-26T14:52:46.508Z,5.32
2018-02-26T14:53:27.587Z,5.19
2018-02-26T14:54:14.182Z,5.22
2018-02-26T14:54:55.975Z,5.15
2018-02-26T14:55:36.735Z,5.14
2018-02-26T14:56:18.488Z,5.06
2018-02-26T14:56:59.267Z,5.01
2018-02-26T14:57:42.049Z,4.88
2018-02-26T14:58:23.011Z,4.57
2018-02-26T14:59:05.496Z,4.62
2018-02-26T14:59:46.524Z,4.54
2018-02-26T15:00:26.894Z,4.29
2018-02-26T15:01:07.695Z,4.26
2018-02-26T15:01:48.936Z,4.24
2018-02-26T15:02:29.792Z,4.13
2018-02-26T15:03:10.285Z,4.25
2018-02-26T15:03:50.745Z,4.25
2018-02-26T15:04:31.500Z,4.28
2018-02-26T15:05:12.330Z,4.42
2018-02-26T15:05:52.945Z,4.51
2018-02-26T15:06:33.558Z,4.53
2018-02-26T15:07:16.885Z,4.39
2018-02-26T15:07:58.285Z,4.32
2018-02-26T15:08:40.331Z,4.31
2018-02-26T15:09:21.881Z,4.11
2018-02-26T15:10:04.432Z,3.8
2018-02-26T15:10:45.735Z,3.74
2018-02-26T15:11:26.485Z,3.75
2018-02-26T15:12:09.398Z,3.68
2018-02-26T15:12:49.919Z,3.45
2018-02-26T15:13:30.767Z,3.34
2018-02-26T15:14:11.683Z,3.44
2018-02-26T15:14:52.519Z,3.56
2018-02-26T15:15:33.750Z,3.59
2018-02-26T15:16:14.426Z,3.54
2018-02-26T15:16:56.035Z,3.67
2018-02-26T15:17:36.884Z,3.98
2018-02-26T15:18:25.763Z,4.1
2018-02-26T15:19:07.964Z,4.18
2018-02-26T15:19:49.041Z,4.31
2018-02-26T15:20:31.133Z,4.08
2018-02-26T15:21:14.717Z,4.04
2018-02-26T15:21:55.746Z,4.06
2018-02-26T15:22:40.810Z,4.1
2018-02-26T15:23:24.229Z,4.24
2018-02-26T15:28:17.643Z,4.8
2018-02-26T15:28:58.011Z,4.9
2018-02-26T15:29:38.429Z,4.75
2018-02-26T15:30:18.871Z,4.74
2018-02-26T15:30:59.244Z,4.56
2018-02-26T15:31:39.777Z,4.29
2018-02-26T15:32:21.040Z,4.2
2018-02-26T15:33:01.560Z,4.32
2018-02-26T15:33:41.844Z,4.49
2018-02-26T15:34:22.592Z,4.69
2018-02-26T15:35:02.994Z,4.86
2018-02-26T15:35:43.419Z,5.17
2018-02-26T15:36:24.105Z,5.47
2018-02-26T15:37:04.651Z,5.74
2018-02-26T15:37:45.178Z,6.11
2018-02-26T15:38:26.344Z,6.21
2018-02-26T15:39:06.853Z,5.78
2018-02-26T15:39:47.229Z,5.45
2018-02-26T15:40:27.762Z,5.35
2018-02-26T15:41:08.496Z,5.35
2018-02-26T15:41:48.899Z,5.35
2018-02-26T15:42:30.022Z,5.27
2018-02-26T15:43:10.501Z,5.11
2018-02-26T15:43:51.063Z,5.04
2018-02-26T15:44:32.857Z,5.02
2018-02-26T15:45:13.082Z,4.93
2018-02-26T15:45:54.290Z,4.87
2018-02-26T15:46:34.784Z,4.79
2018-02-26T15:47:15.298Z,4.62
2018-02-26T15:47:56.137Z,4.42
2018-02-26T15:48:37.596Z,4.36
2018-02-26T15:49:18.182Z,4.46
2018-02-26T15:49:59.848Z,4.38
2018-02-26T15:50:40.397Z,4.46
2018-02-26T15:51:21.074Z,4.34
2018-02-26T15:52:01.777Z,4.02
2018-02-26T15:52:42.215Z,3.84
2018-02-26T15:53:22.646Z,3.81
2018-02-26T15:54:03.050Z,3.92
2018-02-26T15:54:43.688Z,4.02
2018-02-26T15:55:24.004Z,3.96
2018-02-26T15:56:04.464Z,3.95
2018-02-26T15:56:45.028Z,4.08
2018-02-26T15:57:25.553Z,4.16
2018-02-26T15:58:06.053Z,4.29
2018-02-26T15:58:46.563Z,4.36
2018-02-26T15:59:27.087Z,4.25
2018-02-26T16:00:07.589Z,4.26
2018-02-26T16:00:49.195Z,4.24
2018-02-26T16:01:29.221Z,4.32
2018-02-26T16:02:10.564Z,4.31
2018-02-26T16:02:50.776Z,4.35
2018-02-26T16:03:31.388Z,4.26
2018-02-26T16:04:11.974Z,4.13